Detalii statie TOMOIOAGA GABRIEL [00001D05]

Toti senzorii

Date Temperatura solului [C]Precipitatii [mm]Voltaj baterie [mV]Leaf Wetness [Min]HC Air temperature [C]HC Relative humidity [%]Punctul de roua [C]
medieminmaxsumaultimatimpmedieminmaxmediemediemin
2017-06-25 06:00:00 0 7020 16.65 16.08 17.64 0 0 0
2017-06-25 07:00:00 0 7412 19.17 17.83 20.19 0 0 0
2017-06-25 08:00:00 0 7402 22.08 20.45 23.47 0 0 0
2017-06-25 09:00:00 0 7392 25.89 23.77 28.06 0 0 0
2017-06-25 10:00:00 0 7382 28.54 27.42 29.9 0 0 0
2017-06-25 11:00:00 0 7382 31.3 30.16 32.75 0 0 0
2017-06-25 12:00:00 0 7382 33.26 32.69 33.96 0 0 0
2017-06-25 13:00:00 0 7382 33.76 32.47 34.86 0 0 0
2017-06-25 14:00:00 0 7372 34.14 32.54 35.37 0 0 0
2017-06-25 15:00:00 0 7294 34.24 32.78 35.48 0 0 0
2017-06-25 16:00:00 0 7176 34.37 34 35.14 0 0 0
2017-06-25 17:00:00 0 7098 33.99 33.55 34.28 0 0 0
2017-06-25 18:00:00 0 7050 32.77 32.54 33.02 0 0 0
2017-06-25 19:00:00 0 7020 31.58 30.16 32.43 0 0 0
2017-06-25 20:00:00 0 6932 28 25.97 30 0 0 0
2017-06-25 21:00:00 0 6894 23.95 23.3 25.35 0 0 0
2017-06-25 22:00:00 0 6874 23.6 22.53 24.96 0 0 0
2017-06-25 23:00:00 0 6864 23.05 22.54 23.59 0 0 0
2017-06-26 00:00:00 0 6874 21.86 21.5 22.14 0 0 0
2017-06-26 01:00:00 0 6864 21.99 21.67 22.17 0 0 0
2017-06-26 02:00:00 0 6864 21.16 20.89 21.5 0 0 0
2017-06-26 03:00:00 0 6854 20.61 20.24 20.92 0 0 0
2017-06-26 04:00:00 1.2 6844 19.92 19.27 20.37 0 0 0
2017-06-26 05:00:00 0.2 6834 19.11 18.91 19.24 0 0 0
2017-06-26 06:00:00 0 6904 19.24 18.79 19.56 0 0 0
2017-06-26 07:00:00 0 6914 9.79 20.02 0 0 0
2017-06-26 08:00:00 0 7030 20.77 20.28 21.53 0 0 0
2017-06-26 09:00:00 0.4 7050 10.52 20.66 0 0 0
2017-06-26 10:00:00 0 7402 11.8 24.1 0 0 0
2017-06-26 11:00:00 0 7392 25.54 23.91 28.2 0 0 0
2017-06-26 12:00:00 0 7382 27.85 26.21 29.8 0 0 0
2017-06-26 13:00:00 0 7382 27.27 25.38 28.9 0 0 0
2017-06-26 14:00:00 0 7392 27.8 26.04 29.97 0 0 0
2017-06-26 15:00:00 0 7382 27.53 26.79 29.86 0 0 0
2017-06-26 16:00:00 0 7284 28.97 28.31 29.58 0 0 0
2017-06-26 17:00:00 0 7186 29.38 28.37 30.17 0 0 0
2017-06-26 18:00:00 0 7148 28.83 28.19 29.66 0 0 0
2017-06-26 19:00:00 0 7080 27.73 26.76 28.14 0 0 0
2017-06-26 20:00:00 0 6992 25.66 24.13 26.88 0 0 0
2017-06-26 21:00:00 0 6922 21.82 19.73 23.8 0 0 0
2017-06-26 22:00:00 0 6884 23.34 17.51 0 0 0
2017-06-26 23:00:00 0 6874 21.95 16.79 0 0 0
2017-06-27 00:00:00 0 6874 16.09 15.55 16.54 0 0 0
2017-06-27 01:00:00 0 6844 5.9 15.9 0 0 0
2017-06-27 02:00:00 0 6844 -8.83 0 0 0
2017-06-27 03:00:00 0 6854 14.2 13.85 14.82 0 0 0
2017-06-27 04:00:00 0 6834 19.13 13.71 0 0 0
2017-06-27 05:00:00 0 6806 28.71 13.81 0 0 0